This is the latest recevied weather packets stored in our database for station/object VA3XLC. If no packets are shown the sender has not sent any weather packets the latest 10 day(s).
| Time | Temp. | Humidity | Pressure | Rain* | Wind** | Luminosity | Snow |
|---|---|---|---|---|---|---|---|
| 1777858741 | 13.33° C | 46% | 975.5 hPa | - | - | 0 W/m² | - |
| 1777858440 | 13.33° C | 46% | 975.4 hPa | - | - | 0 W/m² | - |
| 1777858140 | 13.33° C | 46% | 975.4 hPa | - | - | 0 W/m² | - |
| 1777857540 | 13.33° C | 47% | 975.3 hPa | - | - | 0 W/m² | - |
| 1777852071 | 15° C | 38% | 975 hPa | - | - | 17 W/m² | - |
| 1777851128 | 15° C | 37% | 975 hPa | - | - | 33 W/m² | - |
| 1777849284 | 15° C | 36% | 975.2 hPa | - | - | 54 W/m² | - |
| 1777847482 | 15° C | 36% | 975.4 hPa | - | - | 93 W/m² | - |
| 1777844736 | 14.44° C | 36% | 975.5 hPa | - | - | 65 W/m² | - |
| 1777843835 | 14.44° C | 36% | 975.5 hPa | - | - | 142 W/m² | - |
| 1777843213 | 14.44° C | 36% | 975.6 hPa | - | - | 118 W/m² | - |
| 1777840811 | 13.89° C | 40% | 976.4 hPa | - | - | 199 W/m² | - |
| 1777838045 | 13.89° C | 38% | 976.4 hPa | - | - | 178 W/m² | - |
| 1777831654 | 14.44° C | 38% | 977.2 hPa | - | - | 251 W/m² | - |
| 1777830433 | 15° C | 33% | 977.1 hPa | - | - | 887 W/m² | - |
| 1777829811 | 14.44° C | 36% | 977.1 hPa | - | - | 560 W/m² | - |
| 1777829511 | 14.44° C | 35% | 977.1 hPa | - | - | 320 W/m² | - |
| 1777826442 | 13.89° C | 38% | 978 hPa | - | - | 867 W/m² | - |
| 1777820289 | 10.56° C | 41% | 979.1 hPa | - | - | 487 W/m² | - |
| 1777816944 | 8.89° C | 42% | 979.8 hPa | - | - | 617 W/m² | - |
| 1777816042 | 8.33° C | 45% | 979.9 hPa | - | - | 568 W/m² | - |
| 1777815441 | 7.78° C | 47% | 980.1 hPa | - | - | 541 W/m² | - |
| 1777814840 | 7.78° C | 47% | 980.2 hPa | - | - | 518 W/m² | - |
| 1777813638 | 7.22° C | 43% | 980.3 hPa | - | - | 503 W/m² | - |
| 1777809972 | 3.89° C | 62% | 980.9 hPa | - | - | 270 W/m² | - |
* Rain since midnight (hover to see other rain measurements)
** Current wind speed in m/s (hover to see current wind gust speed)